createdAt,value
2018-01-23T00:00:38.807Z,3.8
2018-01-23T00:01:45.479Z,3.8
2018-01-23T00:02:49.562Z,3.8
2018-01-23T00:03:53.122Z,3.8
2018-01-23T00:04:56.563Z,3.8
2018-01-23T00:06:00.453Z,3.8
2018-01-23T00:07:04.014Z,3.8
2018-01-23T00:08:08.955Z,3.7
2018-01-23T00:09:12.092Z,3.7
2018-01-23T00:10:15.599Z,3.7
2018-01-23T00:11:19.016Z,3.7
2018-01-23T00:12:26.444Z,3.7
2018-01-23T00:13:29.778Z,3.7
2018-01-23T00:14:33.230Z,3.7
2018-01-23T00:15:36.365Z,3.7
2018-01-23T00:16:41.059Z,3.7
2018-01-23T00:17:44.459Z,3.7
2018-01-23T00:18:47.927Z,3.7
2018-01-23T00:19:52.002Z,3.7
2018-01-23T00:20:55.472Z,3.7
2018-01-23T00:21:58.906Z,3.7
2018-01-23T00:23:06.415Z,3.7
2018-01-23T00:24:10.373Z,3.6
2018-01-23T00:25:13.933Z,3.6
2018-01-23T00:26:17.455Z,3.6
2018-01-23T00:27:20.964Z,3.7
2018-01-23T00:28:24.444Z,3.7
2018-01-23T00:29:27.929Z,3.7
2018-01-23T00:30:31.407Z,3.7
2018-01-23T00:31:34.783Z,3.7
2018-01-23T00:32:38.691Z,3.6
2018-01-23T00:33:45.658Z,3.6
2018-01-23T00:34:48.962Z,3.7
2018-01-23T00:35:52.255Z,3.7
2018-01-23T00:36:55.585Z,3.7
2018-01-23T00:37:59.142Z,3.7
2018-01-23T00:39:03.093Z,3.7
2018-01-23T00:40:06.401Z,3.7
2018-01-23T00:41:09.771Z,3.7
2018-01-23T00:42:13.191Z,3.7
2018-01-23T00:43:16.585Z,3.7
2018-01-23T00:44:24.347Z,3.7
2018-01-23T00:45:27.723Z,3.6
2018-01-23T00:46:31.495Z,3.7
2018-01-23T00:47:34.849Z,3.7
2018-01-23T00:48:38.925Z,3.7
2018-01-23T00:49:42.800Z,3.7
2018-01-23T00:50:46.767Z,3.7
2018-01-23T00:51:50.387Z,3.6
2018-01-23T00:52:53.785Z,3.6
2018-01-23T00:53:57.220Z,3.6
2018-01-23T00:55:03.955Z,3.6
2018-01-23T00:56:07.548Z,3.6
2018-01-23T00:57:10.862Z,3.6
2018-01-23T00:58:14.082Z,3.5
2018-01-23T00:59:17.559Z,3.6
2018-01-23T01:00:20.953Z,3.6
2018-01-23T01:01:24.505Z,3.5
2018-01-23T01:02:27.987Z,3.5
2018-01-23T01:03:31.916Z,3.5
2018-01-23T01:04:35.442Z,3.5
2018-01-23T01:05:43.404Z,3.5
2018-01-23T01:06:46.530Z,3.5
2018-01-23T01:07:49.977Z,3.5
2018-01-23T01:08:53.391Z,3.5
2018-01-23T01:09:57.871Z,3.6
2018-01-23T01:11:02.001Z,3.5
2018-01-23T01:12:05.380Z,3.6
2018-01-23T01:13:09.236Z,3.5
2018-01-23T01:14:13.315Z,3.6
2018-01-23T01:15:16.807Z,3.5
2018-01-23T01:16:24.395Z,3.5
2018-01-23T01:17:29.229Z,3.5
2018-01-23T01:18:32.692Z,3.5
2018-01-23T01:19:36.847Z,3.6
2018-01-23T01:20:41.081Z,3.5
2018-01-23T01:21:45.030Z,3.6
2018-01-23T01:22:48.978Z,3.6
2018-01-23T01:23:52.424Z,3.5
2018-01-23T01:24:55.907Z,3.6
2018-01-23T01:25:59.383Z,3.5
2018-01-23T01:27:07.003Z,3.5
2018-01-23T01:28:11.177Z,3.5
2018-01-23T01:29:14.341Z,3.5
2018-01-23T01:30:17.820Z,3.6
2018-01-23T01:31:21.035Z,3.5
2018-01-23T01:32:25.038Z,3.5
2018-01-23T01:33:28.454Z,3.5
2018-01-23T01:34:31.832Z,3.5
2018-01-23T01:35:35.036Z,3.5
2018-01-23T01:36:38.431Z,3.5
2018-01-23T01:37:46.592Z,3.5
2018-01-23T01:38:50.564Z,3.5
2018-01-23T01:39:53.964Z,3.5
2018-01-23T01:40:57.412Z,3.5
2018-01-23T01:42:01.463Z,3.4
2018-01-23T01:43:04.930Z,3.4
2018-01-23T01:44:08.010Z,3.4
2018-01-23T01:45:11.491Z,3.4
2018-01-23T01:46:14.952Z,3.4
2018-01-23T01:47:18.417Z,3.4
2018-01-23T01:48:26.198Z,3.4
2018-01-23T01:49:29.674Z,3.4
2018-01-23T01:50:34.370Z,3.4
2018-01-23T01:51:37.767Z,3.4
2018-01-23T01:52:42.237Z,3.4
2018-01-23T01:53:45.599Z,3.4
2018-01-23T01:54:49.675Z,3.4
2018-01-23T01:55:53.118Z,3.4
2018-01-23T01:56:56.970Z,3.4
2018-01-23T01:58:02.118Z,3.3
2018-01-23T01:59:09.065Z,3.3
2018-01-23T02:00:12.538Z,3.3
2018-01-23T02:01:15.918Z,3.3
2018-01-23T02:02:19.336Z,3.3
2018-01-23T02:03:22.781Z,3.3
2018-01-23T02:04:25.852Z,3.3
2018-01-23T02:05:29.311Z,3.2
2018-01-23T02:06:32.742Z,3.3
2018-01-23T02:07:36.128Z,3.2
2018-01-23T02:08:40.224Z,3.2
2018-01-23T02:09:47.108Z,3.2
2018-01-23T02:10:50.313Z,3.2
2018-01-23T02:11:53.700Z,3.2
2018-01-23T02:12:57.130Z,3.2
2018-01-23T02:14:00.690Z,3.2
2018-01-23T02:15:04.204Z,3.2
2018-01-23T02:16:07.676Z,3.2
2018-01-23T02:17:11.351Z,3.2
2018-01-23T02:18:14.613Z,3.1
2018-01-23T02:19:18.714Z,3.1
2018-01-23T02:20:25.506Z,3.1
2018-01-23T02:21:29.777Z,3.1
2018-01-23T02:22:33.538Z,3.1
2018-01-23T02:23:37.066Z,3.1
2018-01-23T02:24:40.380Z,3.1
2018-01-23T02:25:43.766Z,3.1
2018-01-23T02:26:47.164Z,3.1
2018-01-23T02:27:51.220Z,3.1
2018-01-23T02:28:55.153Z,3.1
2018-01-23T02:29:58.321Z,3.1
2018-01-23T02:31:05.314Z,3.1
2018-01-23T02:32:08.823Z,3
2018-01-23T02:33:12.488Z,3
2018-01-23T02:34:15.755Z,3
2018-01-23T02:35:19.935Z,3.1
2018-01-23T02:36:23.305Z,3
2018-01-23T02:37:26.865Z,3
2018-01-23T02:38:31.009Z,3
2018-01-23T02:39:35.760Z,3.1
2018-01-23T02:40:39.870Z,3.1
2018-01-23T02:41:46.511Z,3
2018-01-23T02:42:49.878Z,3
2018-01-23T02:43:53.245Z,3
2018-01-23T02:44:56.797Z,2.9
2018-01-23T02:46:00.295Z,2.9
2018-01-23T02:47:03.752Z,2.8
2018-01-23T02:48:07.740Z,2.9
2018-01-23T02:49:12.319Z,2.8
2018-01-23T02:50:15.695Z,2.8
2018-01-23T02:51:19.264Z,2.8
2018-01-23T02:52:26.952Z,2.8
2018-01-23T02:53:30.363Z,2.8
2018-01-23T02:54:34.993Z,2.8
2018-01-23T02:55:38.333Z,2.7
2018-01-23T02:56:41.763Z,2.7
2018-01-23T02:57:45.229Z,2.7
2018-01-23T02:58:48.776Z,2.6
2018-01-23T02:59:52.387Z,2.7
2018-01-23T03:00:55.762Z,2.7
2018-01-23T03:01:59.238Z,2.8
2018-01-23T03:03:06.516Z,2.8
2018-01-23T03:04:09.924Z,2.7
2018-01-23T03:05:13.978Z,2.9
2018-01-23T03:06:17.360Z,2.9
2018-01-23T03:07:20.840Z,2.9
2018-01-23T03:08:25.355Z,2.8
2018-01-23T03:09:30.440Z,2.8
2018-01-23T03:10:34.533Z,2.8
2018-01-23T03:11:37.835Z,2.8
2018-01-23T03:12:41.248Z,2.7
2018-01-23T03:13:49.665Z,2.8
2018-01-23T03:14:52.709Z,2.8
2018-01-23T03:15:56.701Z,2.8
2018-01-23T03:17:00.157Z,2.8
2018-01-23T03:18:03.621Z,2.8
2018-01-23T03:19:06.892Z,2.8
2018-01-23T03:20:11.225Z,2.8
2018-01-23T03:21:14.676Z,2.8
2018-01-23T03:22:18.007Z,2.8
2018-01-23T03:23:22.116Z,2.9
2018-01-23T03:24:29.204Z,2.8
2018-01-23T03:25:32.632Z,2.8
2018-01-23T03:26:36.338Z,2.8
2018-01-23T03:27:39.631Z,2.8
2018-01-23T03:28:43.088Z,2.8
2018-01-23T03:29:46.442Z,2.8
2018-01-23T03:30:49.848Z,2.7
2018-01-23T03:31:53.587Z,2.8
2018-01-23T03:32:57.604Z,2.8
2018-01-23T03:34:01.992Z,2.8
2018-01-23T03:35:09.063Z,2.9
2018-01-23T03:36:12.867Z,2.9
2018-01-23T03:37:18.055Z,2.9
2018-01-23T03:38:21.223Z,3
2018-01-23T03:39:24.573Z,2.9
2018-01-23T03:40:27.972Z,2.9
2018-01-23T03:41:32.091Z,2.9
2018-01-23T03:42:35.650Z,2.9
2018-01-23T03:43:38.911Z,2.9
2018-01-23T03:44:42.405Z,2.9
2018-01-23T03:45:49.968Z,3
2018-01-23T03:46:53.385Z,3
2018-01-23T03:47:56.740Z,3
2018-01-23T03:49:00.220Z,3
2018-01-23T03:50:03.540Z,2.9
2018-01-23T03:51:06.799Z,2.9
2018-01-23T03:52:10.046Z,3
2018-01-23T03:53:13.381Z,3
2018-01-23T03:54:16.509Z,3
2018-01-23T03:55:19.748Z,3
2018-01-23T03:56:27.299Z,3
2018-01-23T03:57:30.605Z,3
2018-01-23T03:58:34.019Z,3
2018-01-23T03:59:37.495Z,3
2018-01-23T04:00:41.090Z,3
2018-01-23T04:01:44.480Z,3
2018-01-23T04:02:48.221Z,3.1
2018-01-23T04:03:52.883Z,3.1
2018-01-23T04:04:56.290Z,3.1
2018-01-23T04:05:59.620Z,3.1
2018-01-23T04:07:07.593Z,3.1
2018-01-23T04:08:11.076Z,3
2018-01-23T04:09:14.506Z,3
2018-01-23T04:10:17.894Z,3
2018-01-23T04:11:21.191Z,3.1
2018-01-23T04:12:24.569Z,3.1
2018-01-23T04:13:28.616Z,3.1
2018-01-23T04:14:31.996Z,3.1
2018-01-23T04:15:36.067Z,3.1
2018-01-23T04:16:39.548Z,3.2
2018-01-23T04:17:47.062Z,3.1
2018-01-23T04:18:50.527Z,3.1
2018-01-23T04:19:54.003Z,3.1
2018-01-23T04:20:57.478Z,3.1
2018-01-23T04:22:00.880Z,3.1
2018-01-23T04:23:04.322Z,3.1
2018-01-23T04:24:07.576Z,3.1
2018-01-23T04:25:11.495Z,3.1
2018-01-23T04:26:15.566Z,3.1
2018-01-23T04:27:18.997Z,3.2
2018-01-23T04:28:27.513Z,3.2
2018-01-23T04:29:30.933Z,3.2
2018-01-23T04:30:34.322Z,3.1
2018-01-23T04:31:37.689Z,3.2
2018-01-23T04:32:41.101Z,3.2
2018-01-23T04:33:44.520Z,3.1
2018-01-23T04:34:47.927Z,3.1
2018-01-23T04:35:51.490Z,3.1
2018-01-23T04:36:54.993Z,3.1
2018-01-23T04:37:58.337Z,3.1
2018-01-23T04:39:06.630Z,3
2018-01-23T04:40:10.628Z,3.1
2018-01-23T04:41:14.498Z,3
2018-01-23T04:42:17.948Z,3.1
2018-01-23T04:43:21.245Z,3.1
2018-01-23T04:44:24.721Z,3
2018-01-23T04:45:28.126Z,3.1
2018-01-23T04:46:31.401Z,3.1
2018-01-23T04:47:34.791Z,3.1
2018-01-23T04:48:38.183Z,3.1
2018-01-23T04:49:45.875Z,3.1
2018-01-23T04:50:49.304Z,3.1
2018-01-23T04:51:53.390Z,3.1
2018-01-23T04:52:56.747Z,3.1
2018-01-23T04:54:00.661Z,3.1
2018-01-23T04:55:05.036Z,3.1
2018-01-23T04:56:08.650Z,3.1
2018-01-23T04:57:13.237Z,3.1
2018-01-23T04:58:16.713Z,3.1
2018-01-23T04:59:20.017Z,3.1
2018-01-23T05:00:27.099Z,3.1
2018-01-23T05:01:30.507Z,3
2018-01-23T05:02:33.958Z,3.1
2018-01-23T05:03:37.474Z,3.1
2018-01-23T05:04:40.890Z,3.1
2018-01-23T05:05:44.401Z,3.1
2018-01-23T05:06:48.587Z,3.1
2018-01-23T05:07:52.911Z,3.1
2018-01-23T05:08:56.417Z,3.1
2018-01-23T05:10:00.475Z,3.1
2018-01-23T05:11:08.121Z,3.1
2018-01-23T05:12:12.118Z,3.1
2018-01-23T05:13:15.921Z,3.1
2018-01-23T05:14:19.522Z,3.1
2018-01-23T05:15:22.811Z,3.1
2018-01-23T05:16:26.847Z,3.1
2018-01-23T05:17:30.236Z,3.1
2018-01-23T05:18:33.760Z,3.1
2018-01-23T05:19:37.117Z,3
2018-01-23T05:20:40.522Z,3
2018-01-23T05:21:47.578Z,3
2018-01-23T05:22:50.937Z,2.9
2018-01-23T05:23:54.856Z,2.9
2018-01-23T05:24:58.333Z,2.9
2018-01-23T05:26:01.699Z,2.9
2018-01-23T05:27:05.773Z,2.9
2018-01-23T05:28:09.232Z,3
2018-01-23T05:29:12.623Z,3
2018-01-23T05:30:16.077Z,3
2018-01-23T05:31:20.050Z,3
2018-01-23T05:32:27.102Z,3
2018-01-23T05:33:31.114Z,3
2018-01-23T05:34:34.410Z,3
2018-01-23T05:35:38.365Z,3
2018-01-23T05:36:42.399Z,3
2018-01-23T05:37:45.719Z,3
2018-01-23T05:38:49.510Z,3
2018-01-23T05:39:53.146Z,3
2018-01-23T05:40:56.536Z,3
2018-01-23T05:41:59.908Z,3
2018-01-23T05:43:06.911Z,3
2018-01-23T05:44:10.190Z,3
2018-01-23T05:45:13.479Z,3
2018-01-23T05:46:17.013Z,3
2018-01-23T05:47:21.072Z,3
2018-01-23T05:48:25.190Z,3
2018-01-23T05:49:28.626Z,3
2018-01-23T05:50:32.049Z,3
2018-01-23T05:51:35.490Z,3
2018-01-23T05:52:38.917Z,3
2018-01-23T05:53:46.008Z,3
2018-01-23T05:54:50.171Z,3.1
2018-01-23T05:55:53.656Z,3
2018-01-23T05:56:58.693Z,3
2018-01-23T05:58:02.200Z,3
2018-01-23T05:59:05.630Z,3
2018-01-23T06:00:09.894Z,3
2018-01-23T06:01:13.482Z,3
2018-01-23T06:02:16.830Z,3
2018-01-23T06:03:20.225Z,3
2018-01-23T06:05:00.502Z,3
2018-01-23T06:06:04.494Z,3
2018-01-23T06:07:07.937Z,3
2018-01-23T06:08:11.274Z,3
2018-01-23T06:09:15.150Z,3
2018-01-23T06:10:18.448Z,3
2018-01-23T06:11:22.388Z,3
2018-01-23T06:12:25.764Z,3
2018-01-23T06:13:29.160Z,3
2018-01-23T06:14:33.112Z,3
2018-01-23T06:15:40.035Z,3
2018-01-23T06:16:43.529Z,3
2018-01-23T06:17:46.930Z,3
2018-01-23T06:18:51.539Z,3
2018-01-23T06:19:55.093Z,3
2018-01-23T06:20:58.511Z,3
2018-01-23T06:22:02.420Z,3
2018-01-23T06:23:05.843Z,3
2018-01-23T06:24:09.992Z,3
2018-01-23T06:25:13.341Z,3
2018-01-23T06:26:20.075Z,3
2018-01-23T06:27:24.758Z,3
2018-01-23T06:28:28.255Z,3
2018-01-23T06:29:32.362Z,3
2018-01-23T06:30:35.875Z,3
2018-01-23T06:31:39.093Z,3
2018-01-23T06:32:43.448Z,3
2018-01-23T06:33:46.771Z,3
2018-01-23T06:34:50.249Z,3
2018-01-23T06:35:53.747Z,3
2018-01-23T06:37:01.555Z,3
2018-01-23T06:38:04.898Z,3
2018-01-23T06:39:08.240Z,3
2018-01-23T06:40:11.698Z,3
2018-01-23T06:41:15.078Z,3
2018-01-23T06:42:18.235Z,3
2018-01-23T06:43:21.614Z,3
2018-01-23T06:44:25.083Z,3
2018-01-23T06:45:28.427Z,3
2018-01-23T06:46:32.378Z,3
2018-01-23T06:47:39.485Z,3
2018-01-23T06:48:42.831Z,3
2018-01-23T06:49:46.346Z,3
2018-01-23T06:50:50.317Z,3
2018-01-23T06:51:54.427Z,3
2018-01-23T06:52:57.953Z,3
2018-01-23T06:54:01.877Z,3
2018-01-23T06:55:05.819Z,3
2018-01-23T06:56:10.231Z,2.9
2018-01-23T06:57:13.774Z,3
2018-01-23T06:58:20.726Z,3
2018-01-23T06:59:24.102Z,3
2018-01-23T07:00:27.491Z,3
2018-01-23T07:01:30.980Z,3
2018-01-23T07:02:34.521Z,3
2018-01-23T07:03:37.832Z,3
2018-01-23T07:04:41.418Z,3
2018-01-23T07:05:46.533Z,3
2018-01-23T07:06:49.993Z,3
2018-01-23T07:07:53.359Z,3.1
2018-01-23T07:09:00.282Z,3
2018-01-23T07:10:03.752Z,3
2018-01-23T07:11:07.146Z,3
2018-01-23T07:12:10.977Z,3
2018-01-23T07:13:14.493Z,3
2018-01-23T07:14:17.954Z,3.1
2018-01-23T07:15:21.620Z,3
2018-01-23T07:16:25.634Z,3.1
2018-01-23T07:17:29.043Z,3
2018-01-23T07:18:32.356Z,3
2018-01-23T07:19:40.900Z,3
2018-01-23T07:20:44.166Z,3
2018-01-23T07:21:47.626Z,3
2018-01-23T07:22:51.696Z,3
2018-01-23T07:23:55.205Z,3
2018-01-23T07:24:58.576Z,3
2018-01-23T07:26:02.570Z,3
2018-01-23T07:27:06.731Z,3
2018-01-23T07:28:10.595Z,3
2018-01-23T07:29:14.134Z,3
2018-01-23T07:30:54.486Z,3
2018-01-23T07:31:58.589Z,2.8
2018-01-23T07:33:03.248Z,2.7
2018-01-23T07:34:06.646Z,2.8
2018-01-23T07:35:10.156Z,2.9
2018-01-23T07:36:13.680Z,2.9
2018-01-23T07:37:17.693Z,3
2018-01-23T07:38:21.073Z,3
2018-01-23T07:39:24.576Z,3
2018-01-23T07:40:28.753Z,3
2018-01-23T07:41:37.705Z,3
2018-01-23T07:42:41.051Z,3
2018-01-23T07:43:45.105Z,3
2018-01-23T07:44:48.967Z,3
2018-01-23T07:45:55.045Z,3
2018-01-23T07:46:58.916Z,3
2018-01-23T07:48:05.007Z,3
2018-01-23T07:49:10.586Z,3
2018-01-23T07:50:15.205Z,3
2018-01-23T07:51:18.323Z,3
2018-01-23T07:52:27.889Z,3
2018-01-23T07:53:31.898Z,3
2018-01-23T07:54:36.688Z,3
2018-01-23T07:55:40.734Z,3
2018-01-23T07:56:44.551Z,3
2018-01-23T07:57:49.632Z,3
2018-01-23T07:58:53.827Z,3.1
2018-01-23T07:59:57.870Z,3.1
2018-01-23T08:01:02.424Z,3.1
2018-01-23T08:02:05.805Z,3.1
2018-01-23T08:03:14.721Z,3.1
2018-01-23T08:04:18.801Z,3.1
2018-01-23T08:05:23.538Z,3.1
2018-01-23T08:06:28.838Z,3.1
2018-01-23T08:07:32.671Z,3.1
2018-01-23T08:08:36.099Z,3.2
2018-01-23T08:09:40.184Z,3.1
2018-01-23T08:10:43.651Z,3.1
2018-01-23T08:11:47.561Z,3.1
2018-01-23T08:12:50.673Z,3.1
2018-01-23T08:13:59.555Z,3
2018-01-23T08:15:03.417Z,3.1
2018-01-23T08:16:06.933Z,3.1
2018-01-23T08:17:10.417Z,3.1
2018-01-23T08:18:14.992Z,3.1
2018-01-23T08:19:18.451Z,3.1
2018-01-23T08:20:21.846Z,3.1
2018-01-23T08:21:26.535Z,3.1
2018-01-23T08:22:31.762Z,3.1
2018-01-23T08:23:36.205Z,3
2018-01-23T08:24:45.451Z,3.1
2018-01-23T08:25:52.324Z,3
2018-01-23T08:26:56.937Z,3
2018-01-23T08:28:01.072Z,3
2018-01-23T08:29:07.012Z,3.1
2018-01-23T08:30:12.369Z,3.1
2018-01-23T08:31:16.290Z,3.1
2018-01-23T08:32:20.912Z,3.1
2018-01-23T08:33:24.301Z,3.1
2018-01-23T08:34:28.673Z,3.1
2018-01-23T08:35:38.319Z,3.1
2018-01-23T08:36:44.861Z,3.1
2018-01-23T08:37:49.964Z,3.1
2018-01-23T08:38:54.030Z,3.1
2018-01-23T08:39:58.367Z,3.1
2018-01-23T08:41:03.467Z,3.1
2018-01-23T08:42:07.848Z,3.2
2018-01-23T08:43:15.374Z,3.2
2018-01-23T08:44:19.823Z,3.2
2018-01-23T08:45:23.208Z,3.2
2018-01-23T08:47:04.127Z,3.2
2018-01-23T08:48:08.932Z,3.2
2018-01-23T08:49:12.982Z,3.2
2018-01-23T08:50:16.270Z,3.3
2018-01-23T08:51:20.358Z,3.3
2018-01-23T08:52:23.752Z,3.3
2018-01-23T08:53:27.912Z,3.3
2018-01-23T08:54:31.842Z,3.3
2018-01-23T08:55:35.981Z,3.4
2018-01-23T08:56:40.912Z,3.4
2018-01-23T08:57:50.599Z,3.4
2018-01-23T08:58:55.103Z,3.4
2018-01-23T08:59:59.210Z,3.4
2018-01-23T09:01:03.068Z,3.4
2018-01-23T09:02:07.774Z,3.4
2018-01-23T09:03:11.364Z,3.3
2018-01-23T09:04:14.931Z,3.4
2018-01-23T09:05:18.361Z,3.5
2018-01-23T09:06:22.525Z,3.5
2018-01-23T09:07:26.777Z,3.5
2018-01-23T09:08:34.698Z,3.5
2018-01-23T09:09:38.688Z,3.5
2018-01-23T09:10:41.994Z,3.5
2018-01-23T09:11:45.811Z,3.5
2018-01-23T09:12:49.233Z,3.5
2018-01-23T09:13:52.731Z,3.5
2018-01-23T09:14:56.105Z,3.5
2018-01-23T09:16:00.151Z,3.5
2018-01-23T09:17:03.637Z,3.5
2018-01-23T09:18:07.116Z,3.5
2018-01-23T09:19:46.774Z,3.6
2018-01-23T09:20:50.177Z,3.6
2018-01-23T09:21:53.547Z,3.6
2018-01-23T09:22:57.443Z,3.7
2018-01-23T09:24:01.296Z,3.7
2018-01-23T09:25:04.835Z,3.7
2018-01-23T09:26:08.323Z,3.7
2018-01-23T09:27:11.672Z,3.7
2018-01-23T09:28:15.189Z,3.7
2018-01-23T09:29:18.449Z,3.7
2018-01-23T09:30:25.322Z,3.7
2018-01-23T09:31:28.812Z,3.7
2018-01-23T09:32:32.600Z,3.7
2018-01-23T09:33:36.000Z,3.7
2018-01-23T09:34:39.452Z,3.7
2018-01-23T09:35:42.948Z,3.7
2018-01-23T09:36:46.346Z,3.7
2018-01-23T09:37:50.080Z,3.7
2018-01-23T09:38:53.513Z,3.8
2018-01-23T09:39:57.014Z,3.8
2018-01-23T09:41:04.047Z,3.7
2018-01-23T09:42:07.895Z,3.7
2018-01-23T09:43:11.875Z,3.7
2018-01-23T09:44:15.302Z,3.7
2018-01-23T09:45:19.510Z,3.7
2018-01-23T09:46:23.087Z,3.8
2018-01-23T09:47:26.663Z,3.9
2018-01-23T09:48:30.257Z,3.8
2018-01-23T09:49:34.669Z,3.8
2018-01-23T09:50:39.052Z,3.8
2018-01-23T09:51:46.038Z,3.8
2018-01-23T09:52:49.655Z,3.8
2018-01-23T09:53:53.031Z,3.9
2018-01-23T09:54:57.378Z,3.9
2018-01-23T09:56:01.786Z,3.9
2018-01-23T09:57:05.262Z,4
2018-01-23T09:58:08.660Z,3.9
2018-01-23T09:59:12.187Z,3.9
2018-01-23T10:00:15.745Z,3.9
2018-01-23T10:01:19.196Z,3.9
2018-01-23T10:02:26.360Z,3.9
2018-01-23T10:03:29.837Z,3.9
2018-01-23T10:04:33.983Z,3.9
2018-01-23T10:05:37.207Z,4
2018-01-23T10:06:41.416Z,4
2018-01-23T10:07:45.441Z,4
2018-01-23T10:08:49.628Z,4.1
2018-01-23T10:09:54.623Z,4.1
2018-01-23T10:10:58.022Z,4.1
2018-01-23T10:12:03.282Z,4.1
2018-01-23T10:13:10.699Z,4.1
2018-01-23T10:14:15.481Z,4.1
2018-01-23T10:15:18.796Z,4.2
2018-01-23T10:16:22.331Z,4.2
2018-01-23T10:17:26.366Z,4.2
2018-01-23T10:18:29.865Z,4.2
2018-01-23T10:19:33.343Z,4.2
2018-01-23T10:20:37.455Z,4.2
2018-01-23T10:21:41.010Z,4.2
2018-01-23T10:22:44.532Z,4.2
2018-01-23T10:23:51.542Z,4.2
2018-01-23T10:24:55.133Z,4.2
2018-01-23T10:25:59.873Z,4.2
2018-01-23T10:27:04.258Z,4.2
2018-01-23T10:28:07.754Z,4.3
2018-01-23T10:29:11.142Z,4.4
2018-01-23T10:30:15.792Z,4.4
2018-01-23T10:31:20.892Z,4.4
2018-01-23T10:32:25.925Z,4.4
2018-01-23T10:33:29.407Z,4.4
2018-01-23T10:34:37.474Z,4.5
2018-01-23T10:35:41.901Z,4.5
2018-01-23T10:36:46.721Z,4.5
2018-01-23T10:37:52.643Z,4.5
2018-01-23T10:38:56.139Z,4.5
2018-01-23T10:39:59.698Z,4.5
2018-01-23T10:41:03.766Z,4.6
2018-01-23T10:42:07.852Z,4.6
2018-01-23T10:43:11.208Z,4.6
2018-01-23T10:44:15.204Z,4.6
2018-01-23T10:45:22.113Z,4.7
2018-01-23T10:46:25.724Z,4.7
2018-01-23T10:47:29.777Z,4.7
2018-01-23T10:48:34.525Z,4.7
2018-01-23T10:49:38.026Z,4.8
2018-01-23T10:50:42.078Z,4.8
2018-01-23T10:51:45.558Z,4.8
2018-01-23T10:52:50.148Z,4.8
2018-01-23T10:53:54.259Z,4.8
2018-01-23T10:54:58.094Z,4.8
2018-01-23T10:56:06.042Z,4.9
2018-01-23T10:57:10.634Z,4.9
2018-01-23T10:58:14.673Z,5
2018-01-23T10:59:19.430Z,5
2018-01-23T11:00:24.364Z,5.1
2018-01-23T11:01:28.260Z,5.1
2018-01-23T11:02:33.094Z,5.1
2018-01-23T11:03:37.740Z,5.1
2018-01-23T11:04:44.269Z,5.1
2018-01-23T11:05:47.621Z,5.2
2018-01-23T11:06:54.654Z,5.2
2018-01-23T11:07:58.588Z,5.2
2018-01-23T11:09:02.046Z,5.3
2018-01-23T11:10:05.446Z,5.2
2018-01-23T11:11:08.817Z,5.2
2018-01-23T11:12:14.108Z,5.3
2018-01-23T11:13:18.827Z,5.3
2018-01-23T11:14:23.034Z,5.4
2018-01-23T11:15:26.992Z,5.5
2018-01-23T11:16:31.539Z,5.4
2018-01-23T11:17:40.161Z,5.4
2018-01-23T11:18:44.422Z,5.3
2018-01-23T11:19:48.585Z,5.4
2018-01-23T11:20:52.142Z,5.4
2018-01-23T11:21:55.572Z,5.4
2018-01-23T11:23:01.041Z,5.4
2018-01-23T11:24:05.876Z,5.5
2018-01-23T11:25:11.277Z,5.4
2018-01-23T11:26:15.457Z,5.4
2018-01-23T11:27:21.704Z,5.4
2018-01-23T11:28:30.116Z,5.6
2018-01-23T11:29:34.506Z,5.6
2018-01-23T11:30:39.856Z,5.6
2018-01-23T11:31:43.332Z,5.6
2018-01-23T11:32:50.255Z,5.6
2018-01-23T11:33:54.917Z,5.6
2018-01-23T11:34:59.433Z,5.6
2018-01-23T11:36:02.845Z,5.6
2018-01-23T11:37:08.061Z,5.6
2018-01-23T11:38:11.822Z,5.7
2018-01-23T11:39:22.597Z,5.7
2018-01-23T11:40:26.845Z,5.7
2018-01-23T11:41:32.292Z,5.8
2018-01-23T11:42:37.787Z,5.8
2018-01-23T11:43:41.331Z,5.8
2018-01-23T11:44:45.445Z,5.9
2018-01-23T11:45:50.232Z,5.9
2018-01-23T11:46:54.138Z,5.9
2018-01-23T11:47:59.134Z,5.9
2018-01-23T11:49:04.339Z,5.9
2018-01-23T11:50:11.435Z,5.8
2018-01-23T11:51:15.349Z,5.9
2018-01-23T11:52:20.074Z,5.9
2018-01-23T11:53:25.332Z,5.9
2018-01-23T11:54:28.795Z,5.9
2018-01-23T11:55:32.902Z,5.9
2018-01-23T11:56:37.590Z,5.9
2018-01-23T11:57:41.040Z,5.9
2018-01-23T11:58:45.735Z,6
2018-01-23T11:59:49.277Z,5.9
2018-01-23T12:00:58.629Z,5.9
2018-01-23T12:02:02.579Z,6
2018-01-23T12:03:05.988Z,5.9
2018-01-23T12:04:11.787Z,5.9
2018-01-23T12:05:16.868Z,5.9
2018-01-23T12:06:20.670Z,5.9
2018-01-23T12:07:24.235Z,5.9
2018-01-23T12:08:27.775Z,5.9
2018-01-23T12:09:31.231Z,5.9
2018-01-23T12:10:34.679Z,5.9
2018-01-23T12:11:42.856Z,5.9
2018-01-23T12:12:48.177Z,5.9
2018-01-23T12:13:52.690Z,5.8
2018-01-23T12:14:57.517Z,5.8
2018-01-23T12:16:03.864Z,5.8
2018-01-23T12:17:08.300Z,5.8
2018-01-23T12:18:12.353Z,5.9
2018-01-23T12:19:16.430Z,6
2018-01-23T12:20:21.399Z,5.9
2018-01-23T12:21:25.720Z,5.9
2018-01-23T12:22:33.366Z,6
2018-01-23T12:23:36.890Z,5.9
2018-01-23T12:24:40.783Z,5.9
2018-01-23T12:25:45.012Z,5.9
2018-01-23T12:26:48.573Z,6
2018-01-23T12:27:52.003Z,6
2018-01-23T12:28:55.441Z,5.9
2018-01-23T12:29:59.485Z,5.9
2018-01-23T12:31:02.921Z,5.9
2018-01-23T12:32:07.410Z,5.9
2018-01-23T12:33:15.209Z,5.9
2018-01-23T12:34:19.200Z,5.9
2018-01-23T12:35:22.617Z,6
2018-01-23T12:36:26.118Z,6
2018-01-23T12:37:30.152Z,6
2018-01-23T12:38:33.592Z,5.9
2018-01-23T12:39:36.968Z,6
2018-01-23T12:40:40.441Z,6
2018-01-23T12:41:45.996Z,6
2018-01-23T12:42:49.975Z,6.1
2018-01-23T12:43:58.229Z,6.1
2018-01-23T12:45:01.606Z,6.1
2018-01-23T12:46:05.635Z,6.2
2018-01-23T12:47:09.122Z,6.2
2018-01-23T12:48:14.116Z,6.2
2018-01-23T12:49:18.167Z,6.2
2018-01-23T12:50:22.258Z,6.2
2018-01-23T12:51:26.952Z,6.2
2018-01-23T12:52:32.081Z,6.1
2018-01-23T12:53:37.272Z,6.2
2018-01-23T12:54:48.498Z,6.2
2018-01-23T12:55:55.579Z,6.2
2018-01-23T12:56:59.843Z,6.2
2018-01-23T12:58:03.273Z,6.2
2018-01-23T12:59:08.671Z,6.2
2018-01-23T13:00:15.276Z,6.2
2018-01-23T13:01:20.926Z,6.3
2018-01-23T13:02:26.972Z,6.3
2018-01-23T13:03:31.550Z,6.2
2018-01-23T13:04:35.923Z,6.2
2018-01-23T13:06:22.609Z,6.2
2018-01-23T13:07:26.618Z,6.3
2018-01-23T13:08:33.384Z,6.3
2018-01-23T13:09:38.546Z,6.3
2018-01-23T13:10:44.715Z,6.3
2018-01-23T13:11:48.719Z,6.4
2018-01-23T13:12:53.537Z,6.3
2018-01-23T13:13:57.921Z,6.3
2018-01-23T13:15:01.953Z,6.3
2018-01-23T13:16:06.153Z,6.3
2018-01-23T13:17:16.458Z,6.3
2018-01-23T13:18:20.938Z,6.3
2018-01-23T13:19:25.405Z,6.2
2018-01-23T13:20:29.650Z,6.3
2018-01-23T13:21:34.760Z,6.3
2018-01-23T13:22:37.792Z,6.2
2018-01-23T13:23:42.025Z,6.2
2018-01-23T13:24:46.083Z,6.3
2018-01-23T13:25:51.612Z,6.3
2018-01-23T13:26:56.251Z,6.3
2018-01-23T13:28:03.237Z,6.2
2018-01-23T13:29:06.576Z,6.3
2018-01-23T13:30:10.085Z,6.3
2018-01-23T13:31:14.822Z,6.3
2018-01-23T13:32:20.429Z,6.3
2018-01-23T13:33:25.460Z,6.2
2018-01-23T13:34:30.574Z,6
2018-01-23T13:35:34.673Z,6.1
2018-01-23T13:36:40.860Z,6
2018-01-23T13:37:44.395Z,6.1
2018-01-23T13:38:52.139Z,6.1
2018-01-23T13:39:56.804Z,6.1
2018-01-23T13:41:00.951Z,6.1
2018-01-23T13:42:05.024Z,6
2018-01-23T13:43:09.738Z,6
2018-01-23T13:44:14.473Z,5.7
2018-01-23T13:45:21.620Z,5.6
2018-01-23T13:46:28.004Z,5.6
2018-01-23T13:47:32.998Z,5.7
2018-01-23T13:48:37.511Z,5.8
2018-01-23T13:49:46.496Z,5.8
2018-01-23T13:50:50.947Z,5.8
2018-01-23T13:51:55.269Z,5.9
2018-01-23T13:53:00.215Z,5.7
2018-01-23T13:54:05.749Z,5.7
2018-01-23T13:55:10.950Z,5.7
2018-01-23T13:56:15.168Z,5.7
2018-01-23T13:57:19.680Z,5.6
2018-01-23T13:58:23.150Z,5.6
2018-01-23T13:59:27.557Z,5.7
2018-01-23T14:00:34.199Z,5.7
2018-01-23T14:01:38.918Z,5.7
2018-01-23T14:02:42.492Z,5.7
2018-01-23T14:03:46.012Z,5.8
2018-01-23T14:04:51.028Z,5.8
2018-01-23T14:05:55.086Z,5.9
2018-01-23T14:06:59.500Z,5.9
2018-01-23T14:08:04.317Z,5.9
2018-01-23T14:09:08.837Z,5.9
2018-01-23T14:10:12.459Z,5.9
2018-01-23T14:11:23.143Z,5.9
2018-01-23T14:12:27.327Z,5.9
2018-01-23T14:13:31.785Z,5.9
2018-01-23T14:14:35.309Z,5.8
2018-01-23T14:15:39.471Z,5.8
2018-01-23T14:16:42.590Z,5.8
2018-01-23T14:17:46.044Z,5.8
2018-01-23T14:18:49.639Z,5.8
2018-01-23T14:19:53.184Z,5.8
2018-01-23T14:20:56.996Z,5.9
2018-01-23T14:22:04.545Z,5.8
2018-01-23T14:23:08.023Z,5.9
2018-01-23T14:24:11.430Z,5.8
2018-01-23T14:25:15.442Z,5.8
2018-01-23T14:26:18.929Z,5.8
2018-01-23T14:27:22.465Z,5.8
2018-01-23T14:28:25.679Z,5.8
2018-01-23T14:29:29.080Z,5.9
2018-01-23T14:30:32.437Z,5.8
2018-01-23T14:31:36.471Z,5.8
2018-01-23T14:32:45.247Z,5.9
2018-01-23T14:33:48.666Z,5.8
2018-01-23T14:34:52.700Z,5.8
2018-01-23T14:35:56.143Z,5.8
2018-01-23T14:37:00.063Z,5.8
2018-01-23T14:38:04.731Z,5.8
2018-01-23T14:39:09.727Z,5.8
2018-01-23T14:40:12.922Z,5.8
2018-01-23T14:41:16.397Z,5.9
2018-01-23T14:42:20.530Z,5.9
2018-01-23T14:44:00.181Z,5.9
2018-01-23T14:45:04.810Z,5.9
2018-01-23T14:46:08.321Z,5.9
2018-01-23T14:47:12.242Z,5.9
2018-01-23T14:48:16.174Z,5.9
2018-01-23T14:49:19.997Z,5.9
2018-01-23T14:50:23.343Z,5.9
2018-01-23T14:51:26.778Z,5.9
2018-01-23T14:52:30.147Z,5.9
2018-01-23T14:53:33.483Z,5.8
2018-01-23T14:54:41.001Z,5.8
2018-01-23T14:55:44.479Z,5.8
2018-01-23T14:56:48.019Z,5.8
2018-01-23T14:57:51.445Z,5.8
2018-01-23T14:58:54.912Z,5.8
2018-01-23T14:59:58.258Z,5.8
2018-01-23T15:01:01.866Z,5.8
2018-01-23T15:02:06.409Z,5.8
2018-01-23T15:03:10.523Z,5.8